createdAt,value
2018-11-03T00:00:27.089Z,12.68
2018-11-03T00:02:56.154Z,12.37
2018-11-03T00:05:24.965Z,13.10
2018-11-03T00:07:53.778Z,13.15
2018-11-03T00:10:22.648Z,12.78
2018-11-03T00:12:51.372Z,12.65
2018-11-03T00:15:20.172Z,12.93
2018-11-03T00:17:49.074Z,11.93
2018-11-03T00:20:17.919Z,12.78
2018-11-03T00:22:46.698Z,12.53
2018-11-03T00:25:15.405Z,12.60
2018-11-03T00:27:44.554Z,12.20
2018-11-03T00:30:13.886Z,12.47
2018-11-03T00:32:42.657Z,12.03
2018-11-03T00:35:11.850Z,12.25
2018-11-03T00:37:40.576Z,12.50
2018-11-03T00:40:12.156Z,12.53
2018-11-03T00:42:40.886Z,12.13
2018-11-03T00:45:10.627Z,12.05
2018-11-03T00:47:40.256Z,12.03
2018-11-03T00:50:10.371Z,12.33
2018-11-03T00:52:39.107Z,12.58
2018-11-03T00:55:08.470Z,11.83
2018-11-03T00:57:37.645Z,12.07
2018-11-03T01:00:10.201Z,12.20
2018-11-03T01:02:39.630Z,12.43
2018-11-03T01:05:09.099Z,11.55
2018-11-03T01:07:38.834Z,11.65
2018-11-03T01:10:07.652Z,11.55
2018-11-03T01:12:37.563Z,11.80
2018-11-03T01:15:07.751Z,10.95
2018-11-03T01:17:36.556Z,12.00
2018-11-03T01:20:06.210Z,11.85
2018-11-03T01:22:34.997Z,11.65
2018-11-03T01:25:03.806Z,12.47
2018-11-03T01:27:33.738Z,12.70
2018-11-03T01:30:02.530Z,12.73
2018-11-03T01:32:31.419Z,12.90
2018-11-03T01:35:00.105Z,12.10
2018-11-03T01:37:28.858Z,12.35
2018-11-03T01:39:57.977Z,12.43
2018-11-03T01:42:26.881Z,12.65
2018-11-03T01:44:55.658Z,12.53
2018-11-03T01:47:24.430Z,12.37
2018-11-03T01:49:53.741Z,12.15
2018-11-03T01:52:22.528Z,12.73
2018-11-03T01:54:51.282Z,12.85
2018-11-03T01:57:20.100Z,12.80
2018-11-03T01:59:48.992Z,12.33
2018-11-03T02:02:17.874Z,13.22
2018-11-03T02:04:46.735Z,13.43
2018-11-03T02:07:15.535Z,13.72
2018-11-03T02:09:45.367Z,13.18
2018-11-03T02:12:14.156Z,13.90
2018-11-03T02:14:43.037Z,13.48
2018-11-03T02:17:11.907Z,13.48
2018-11-03T02:19:40.678Z,13.22
2018-11-03T02:22:09.812Z,12.97
2018-11-03T02:24:39.563Z,13.50
2018-11-03T02:27:08.318Z,13.10
2018-11-03T02:29:37.071Z,13.60
2018-11-03T02:32:05.962Z,13.62
2018-11-03T02:34:35.397Z,12.95
2018-11-03T02:37:04.176Z,13.62
2018-11-03T02:39:33.005Z,13.10
2018-11-03T02:42:01.873Z,13.67
2018-11-03T02:44:30.687Z,13.03
2018-11-03T02:46:59.773Z,13.38
2018-11-03T02:49:28.661Z,13.87
2018-11-03T02:51:57.562Z,12.67
2018-11-03T02:54:26.360Z,14.05
2018-11-03T02:56:55.109Z,13.15
2018-11-03T02:59:23.881Z,13.08
2018-11-03T03:01:52.685Z,13.98
2018-11-03T03:04:21.502Z,13.55
2018-11-03T03:06:50.309Z,13.13
2018-11-03T03:09:19.146Z,13.23
2018-11-03T03:11:47.982Z,13.37
2018-11-03T03:14:16.719Z,13.22
2018-11-03T03:16:45.468Z,14.18
2018-11-03T03:19:14.343Z,12.98
2018-11-03T03:21:43.216Z,13.28
2018-11-03T03:24:12.098Z,13.58
2018-11-03T03:26:40.933Z,13.85
2018-11-03T03:29:09.937Z,13.65
2018-11-03T03:31:38.622Z,13.87
2018-11-03T03:34:07.431Z,13.38
2018-11-03T03:36:36.307Z,13.77
2018-11-03T03:39:07.892Z,13.70
2018-11-03T03:41:36.769Z,13.48
2018-11-03T03:44:05.621Z,13.72
2018-11-03T03:46:34.656Z,14.07
2018-11-03T03:49:03.550Z,14.60
2018-11-03T03:51:32.268Z,13.80
2018-11-03T03:54:01.935Z,14.38
2018-11-03T03:56:31.298Z,13.62
2018-11-03T03:59:00.246Z,14.00
2018-11-03T04:01:29.144Z,14.43
2018-11-03T04:03:57.896Z,14.40
2018-11-03T04:06:26.604Z,13.30
2018-11-03T04:08:55.800Z,14.23
2018-11-03T04:11:24.510Z,15.13
2018-11-03T04:13:53.378Z,13.83
2018-11-03T04:16:22.354Z,14.33
2018-11-03T04:18:51.273Z,13.43
2018-11-03T04:21:27.986Z,13.83
2018-11-03T04:23:57.384Z,14.05
2018-11-03T04:26:28.096Z,14.53
2018-11-03T04:28:57.754Z,14.63
2018-11-03T04:31:27.159Z,15.13
2018-11-03T04:33:56.025Z,14.70
2018-11-03T04:36:24.856Z,15.00
2018-11-03T04:38:54.093Z,14.13
2018-11-03T04:41:24.588Z,14.00
2018-11-03T04:43:53.267Z,14.28
2018-11-03T04:46:22.768Z,14.20
2018-11-03T04:48:57.818Z,14.95
2018-11-03T04:51:26.664Z,14.43
2018-11-03T04:53:55.541Z,14.00
2018-11-03T04:56:24.516Z,14.20
2018-11-03T04:58:53.352Z,13.80
2018-11-03T05:01:22.318Z,14.75
2018-11-03T05:03:51.144Z,14.70
2018-11-03T05:06:20.701Z,14.20
2018-11-03T05:08:49.604Z,14.80
2018-11-03T05:11:18.531Z,14.25
2018-11-03T05:13:47.354Z,14.18
2018-11-03T05:16:16.263Z,14.30
2018-11-03T05:18:45.937Z,14.75
2018-11-03T05:21:15.475Z,14.93
2018-11-03T05:23:44.262Z,14.33
2018-11-03T05:26:13.202Z,14.37
2018-11-03T05:28:42.024Z,15.03
2018-11-03T05:31:11.051Z,15.33
2018-11-03T05:33:39.818Z,15.30
2018-11-03T05:36:08.755Z,15.48
2018-11-03T05:38:37.696Z,15.08
2018-11-03T05:41:06.659Z,14.93
2018-11-03T05:43:35.937Z,14.47
2018-11-03T05:46:04.779Z,14.60
2018-11-03T05:48:34.537Z,14.80
2018-11-03T05:51:03.358Z,15.10
2018-11-03T05:53:32.199Z,15.08
2018-11-03T05:56:01.055Z,15.58
2018-11-03T05:58:30.183Z,15.23
2018-11-03T06:00:59.971Z,15.38
2018-11-03T06:03:28.907Z,16.12
2018-11-03T06:05:58.346Z,15.23
2018-11-03T06:08:28.042Z,14.63
2018-11-03T06:10:57.091Z,15.03
2018-11-03T06:13:25.890Z,14.98
2018-11-03T06:15:54.787Z,15.30
2018-11-03T06:18:26.651Z,14.95
2018-11-03T06:20:56.337Z,15.37
2018-11-03T06:23:25.577Z,15.98
2018-11-03T06:25:55.153Z,16.15
2018-11-03T06:28:24.130Z,14.55
2018-11-03T06:30:53.076Z,16.42
2018-11-03T06:33:22.406Z,14.20
2018-11-03T06:35:51.752Z,14.75
2018-11-03T06:38:21.709Z,14.90
2018-11-03T06:40:51.081Z,15.03
2018-11-03T06:43:20.228Z,15.35
2018-11-03T06:45:49.476Z,14.93
2018-11-03T06:48:18.967Z,15.18
2018-11-03T06:50:48.276Z,14.33
2018-11-03T06:53:17.514Z,14.87
2018-11-03T06:55:47.178Z,15.50
2018-11-03T06:58:16.418Z,15.00
2018-11-03T07:00:45.721Z,15.93
2018-11-03T07:03:14.869Z,15.80
2018-11-03T07:05:44.308Z,15.95
2018-11-03T07:08:13.672Z,16.07
2018-11-03T07:10:43.723Z,16.15
2018-11-03T07:13:12.655Z,15.98
2018-11-03T07:15:41.821Z,15.60
2018-11-03T07:18:10.653Z,16.17
2018-11-03T07:20:39.999Z,16.40
2018-11-03T07:23:09.874Z,17.02
2018-11-03T07:25:40.659Z,16.73
2018-11-03T07:28:10.009Z,15.55
2018-11-03T07:30:39.785Z,16.05
2018-11-03T07:33:10.873Z,16.32
2018-11-03T07:35:42.330Z,16.40
2018-11-03T07:38:13.872Z,15.80
2018-11-03T07:40:43.221Z,16.57
2018-11-03T07:43:12.180Z,15.80
2018-11-03T07:45:45.074Z,15.98
2018-11-03T07:48:18.861Z,16.10
2018-11-03T07:50:50.155Z,16.20
2018-11-03T07:53:24.917Z,15.65
2018-11-03T07:55:55.718Z,16.05
2018-11-03T07:58:25.735Z,16.17
2018-11-03T08:00:55.200Z,16.33
2018-11-03T08:03:25.329Z,16.35
2018-11-03T08:05:56.127Z,15.50
2018-11-03T08:08:26.950Z,16.00
2018-11-03T08:11:05.796Z,15.90
2018-11-03T08:13:37.547Z,16.15
2018-11-03T08:16:11.048Z,15.45
2018-11-03T08:18:43.748Z,16.50
2018-11-03T08:21:14.732Z,16.37
2018-11-03T08:23:46.415Z,14.83
2018-11-03T08:26:15.235Z,15.50
2018-11-03T08:28:44.279Z,15.60
2018-11-03T08:31:13.786Z,15.72
2018-11-03T08:33:42.562Z,14.78
2018-11-03T08:36:11.367Z,15.60
2018-11-03T08:38:40.139Z,16.17
2018-11-03T08:41:10.058Z,15.05
2018-11-03T08:43:39.661Z,15.38
2018-11-03T08:46:09.787Z,15.38
2018-11-03T08:48:39.569Z,15.60
2018-11-03T08:51:08.515Z,15.10
2018-11-03T08:53:40.685Z,15.03
2018-11-03T08:56:12.138Z,15.37
2018-11-03T08:58:41.075Z,15.28
2018-11-03T09:01:09.881Z,15.15
2018-11-03T09:03:40.966Z,15.05
2018-11-03T09:06:11.517Z,14.95
2018-11-03T09:08:46.872Z,14.57
2018-11-03T09:11:17.454Z,15.72
2018-11-03T09:13:54.031Z,15.48
2018-11-03T09:16:29.748Z,14.33
2018-11-03T09:19:04.930Z,14.13
2018-11-03T09:21:35.530Z,14.95
2018-11-03T09:24:05.654Z,14.50
2018-11-03T09:26:35.276Z,13.58
2018-11-03T09:29:04.464Z,13.62
2018-11-03T09:31:41.474Z,14.10
2018-11-03T09:34:10.404Z,14.07
2018-11-03T09:36:41.059Z,14.45
2018-11-03T09:39:11.021Z,13.62
2018-11-03T09:41:39.893Z,12.88
2018-11-03T09:44:10.506Z,12.93
2018-11-03T09:46:40.196Z,12.90
2018-11-03T09:49:09.873Z,12.95
2018-11-03T09:51:41.671Z,12.15
2018-11-03T09:54:15.499Z,12.03
2018-11-03T09:56:46.821Z,10.82
2018-11-03T09:59:16.515Z,10.47
2018-11-03T10:01:45.532Z,10.40
2018-11-03T10:04:15.484Z,9.23
2018-11-03T10:06:45.893Z,9.70
2018-11-03T10:09:16.929Z,8.97
2018-11-03T10:11:45.676Z,8.90
2018-11-03T10:14:14.501Z,8.30
2018-11-03T10:16:43.609Z,8.23
2018-11-03T10:19:12.762Z,7.67
2018-11-03T10:21:41.963Z,8.08
2018-11-03T10:24:10.733Z,7.55
2018-11-03T10:26:39.507Z,8.03
2018-11-03T10:29:08.643Z,8.53
2018-11-03T10:31:39.584Z,8.13
2018-11-03T10:34:10.019Z,6.50
2018-11-03T10:36:42.103Z,6.12
2018-11-03T10:39:13.119Z,5.47
2018-11-03T10:41:43.076Z,5.15
2018-11-03T10:44:17.263Z,4.43
2018-11-03T10:46:46.448Z,4.28
2018-11-03T10:49:17.173Z,3.80
2018-11-03T10:51:51.878Z,3.47
2018-11-03T10:54:22.303Z,3.37
2018-11-03T10:56:51.353Z,3.08
2018-11-03T10:59:21.985Z,3.30
2018-11-03T11:01:57.822Z,3.27
2018-11-03T11:04:34.967Z,3.40
2018-11-03T11:07:10.730Z,3.42
2018-11-03T11:09:46.580Z,3.50
2018-11-03T11:12:23.575Z,3.60
2018-11-03T11:14:55.405Z,3.50
2018-11-03T11:17:28.504Z,2.50
2018-11-03T11:20:06.283Z,2.92
2018-11-03T11:22:40.332Z,2.95
2018-11-03T11:25:14.056Z,2.90
2018-11-03T11:27:46.283Z,3.10
2018-11-03T11:30:19.171Z,2.42
2018-11-03T11:32:51.275Z,2.40
2018-11-03T11:35:22.420Z,2.17
2018-11-03T11:37:55.417Z,1.77
2018-11-03T11:40:24.715Z,2.20
2018-11-03T11:42:53.887Z,2.22
2018-11-03T11:45:24.600Z,2.47
2018-11-03T11:47:53.903Z,2.10
2018-11-03T11:50:23.499Z,2.07
2018-11-03T11:52:53.267Z,2.20
2018-11-03T11:55:23.779Z,2.15
2018-11-03T11:57:55.013Z,1.98
2018-11-03T12:00:24.890Z,1.87
2018-11-03T12:02:55.209Z,1.80
2018-11-03T12:05:25.286Z,1.87
2018-11-03T12:07:55.437Z,1.75
2018-11-03T12:10:24.751Z,1.70
2018-11-03T12:12:53.935Z,1.83
2018-11-03T12:15:23.478Z,2.10
2018-11-03T12:17:53.118Z,1.90
2018-11-03T12:20:22.791Z,2.15
2018-11-03T12:22:51.564Z,1.65
2018-11-03T12:25:20.834Z,1.52
2018-11-03T12:27:51.721Z,1.70
2018-11-03T12:30:20.559Z,1.60
2018-11-03T12:32:50.014Z,1.32
2018-11-03T12:35:25.379Z,1.62
2018-11-03T12:38:00.411Z,2.00
2018-11-03T12:40:35.425Z,1.75
2018-11-03T12:43:11.198Z,1.93
2018-11-03T12:45:41.038Z,1.60
2018-11-03T12:48:17.329Z,1.87
2018-11-03T12:50:55.572Z,1.70
2018-11-03T12:53:27.548Z,1.57
2018-11-03T12:56:00.496Z,1.50
2018-11-03T12:58:31.752Z,1.70
2018-11-03T13:01:02.531Z,1.70
2018-11-03T13:03:35.751Z,1.50
2018-11-03T13:06:09.801Z,1.60
2018-11-03T13:08:43.362Z,1.70
2018-11-03T13:11:15.178Z,1.90
2018-11-03T13:13:45.218Z,2.00
2018-11-03T13:16:19.017Z,1.90
2018-11-03T13:18:51.188Z,1.70
2018-11-03T13:21:27.069Z,1.77
2018-11-03T13:23:58.446Z,2.30
2018-11-03T13:26:35.619Z,1.62
2018-11-03T13:29:06.967Z,1.95
2018-11-03T13:31:36.112Z,1.90
2018-11-03T13:34:33.090Z,1.50
2018-11-03T13:37:03.372Z,1.90
2018-11-03T13:39:38.126Z,2.00
2018-11-03T13:42:12.789Z,2.15
2018-11-03T13:44:43.954Z,1.80
2018-11-03T13:47:16.926Z,1.95
2018-11-03T13:49:47.300Z,2.10
2018-11-03T13:52:16.716Z,1.90
2018-11-03T13:54:58.317Z,2.00
2018-11-03T13:57:30.056Z,2.05
2018-11-03T14:00:01.151Z,1.80
2018-11-03T14:02:34.817Z,1.93
2018-11-03T14:05:08.315Z,1.95
2018-11-03T14:07:40.363Z,1.98
2018-11-03T14:10:21.247Z,1.98
2018-11-03T14:12:54.230Z,2.00
2018-11-03T14:15:23.990Z,1.82
2018-11-03T14:17:53.551Z,1.90
2018-11-03T14:20:24.984Z,2.02
2018-11-03T14:22:55.389Z,2.00
2018-11-03T14:25:25.103Z,2.30
2018-11-03T14:27:55.259Z,2.00
2018-11-03T14:30:25.268Z,2.30
2018-11-03T14:32:54.035Z,2.17
2018-11-03T14:35:25.369Z,1.90
2018-11-03T14:37:54.180Z,2.00
2018-11-03T14:40:23.092Z,1.95
2018-11-03T14:42:54.853Z,1.90
2018-11-03T14:45:25.469Z,1.90
2018-11-03T14:47:58.533Z,1.72
2018-11-03T14:50:31.968Z,1.92
2018-11-03T14:53:01.732Z,2.00
2018-11-03T14:55:31.797Z,1.90
2018-11-03T14:58:02.154Z,2.00
2018-11-03T15:00:35.373Z,2.37
2018-11-03T15:03:06.390Z,2.30
2018-11-03T15:05:38.204Z,2.08
2018-11-03T15:08:08.834Z,2.35
2018-11-03T15:10:39.685Z,2.20
2018-11-03T15:13:08.704Z,1.90
2018-11-03T15:15:40.260Z,2.10
2018-11-03T15:18:12.078Z,1.95
2018-11-03T15:20:44.071Z,2.12
2018-11-03T15:23:14.614Z,2.37
2018-11-03T15:25:43.528Z,2.30
2018-11-03T15:28:12.182Z,2.10
2018-11-03T15:30:42.466Z,2.25
2018-11-03T15:33:11.942Z,1.98
2018-11-03T15:35:41.330Z,2.37
2018-11-03T15:38:12.202Z,2.20
2018-11-03T15:40:43.226Z,2.40
2018-11-03T15:43:12.157Z,2.30
2018-11-03T15:45:41.133Z,2.40
2018-11-03T15:48:10.712Z,2.42
2018-11-03T15:50:44.887Z,2.52
2018-11-03T15:53:13.757Z,2.83
2018-11-03T15:55:43.550Z,3.50
2018-11-03T15:58:13.003Z,3.65
2018-11-03T16:00:41.996Z,3.58
2018-11-03T16:03:10.906Z,3.83
2018-11-03T16:05:39.904Z,4.03
2018-11-03T16:08:09.207Z,4.28
2018-11-03T16:10:38.792Z,3.92
2018-11-03T16:13:08.007Z,3.95
2018-11-03T16:15:36.827Z,4.20
2018-11-03T16:18:05.863Z,4.10
2018-11-03T16:20:34.652Z,4.80
2018-11-03T16:23:05.199Z,4.03
2018-11-03T16:25:34.546Z,4.25
2018-11-03T16:28:03.296Z,4.92
2018-11-03T16:30:31.997Z,5.00
2018-11-03T16:33:00.885Z,5.10
2018-11-03T16:35:29.581Z,5.03
2018-11-03T16:37:58.255Z,5.03
2018-11-03T16:40:27.599Z,4.90
2018-11-03T16:42:56.266Z,4.85
2018-11-03T16:45:26.535Z,5.42
2018-11-03T16:47:55.998Z,4.80
2018-11-03T16:50:24.845Z,4.90
2018-11-03T16:52:53.530Z,5.15
2018-11-03T16:55:22.340Z,5.10
2018-11-03T16:57:52.242Z,5.05
2018-11-03T17:00:24.158Z,4.78
2018-11-03T17:02:55.958Z,4.92
2018-11-03T17:05:27.079Z,4.95
2018-11-03T17:08:00.640Z,5.20
2018-11-03T17:10:32.974Z,5.30
2018-11-03T17:13:10.385Z,6.65
2018-11-03T17:15:45.274Z,6.17
2018-11-03T17:18:16.394Z,6.78
2018-11-03T17:20:46.901Z,7.03
2018-11-03T17:23:19.004Z,6.65
2018-11-03T17:25:52.593Z,7.07
2018-11-03T17:28:23.020Z,7.67
2018-11-03T17:30:52.936Z,7.57
2018-11-03T17:33:23.527Z,8.03
2018-11-03T17:35:57.901Z,7.37
2018-11-03T17:38:32.855Z,7.40
2018-11-03T17:41:07.276Z,7.80
2018-11-03T17:43:42.147Z,8.00
2018-11-03T17:46:13.259Z,7.25
2018-11-03T17:48:43.736Z,7.67
2018-11-03T17:51:19.069Z,6.92
2018-11-03T17:53:52.110Z,7.12
2018-11-03T17:56:22.890Z,7.35
2018-11-03T17:58:53.862Z,7.28
2018-11-03T18:01:25.559Z,7.62
2018-11-03T18:03:57.089Z,8.10
2018-11-03T18:06:28.048Z,8.60
2018-11-03T18:08:58.119Z,7.50
2018-11-03T18:11:28.005Z,9.35
2018-11-03T18:13:59.196Z,8.68
2018-11-03T18:16:29.077Z,9.08
2018-11-03T18:18:59.738Z,8.50
2018-11-03T18:21:31.124Z,11.80
2018-11-03T18:24:01.458Z,13.03
2018-11-03T18:26:31.953Z,13.63
2018-11-03T18:29:04.114Z,13.35
2018-11-03T18:31:38.721Z,13.35
2018-11-03T18:34:08.412Z,13.65
2018-11-03T18:36:42.296Z,13.55
2018-11-03T18:39:14.362Z,13.43
2018-11-03T18:41:44.657Z,13.60
2018-11-03T18:44:16.946Z,14.00
2018-11-03T18:46:50.990Z,12.85
2018-11-03T18:49:20.161Z,10.75
2018-11-03T18:51:50.879Z,11.00
2018-11-03T18:54:22.138Z,10.07
2018-11-03T18:56:52.287Z,9.35
2018-11-03T18:59:23.054Z,9.03
2018-11-03T19:01:56.487Z,9.05
2018-11-03T19:04:27.739Z,8.93
2018-11-03T19:07:05.098Z,8.50
2018-11-03T19:09:35.780Z,8.75
2018-11-03T19:12:05.836Z,8.70
2018-11-03T19:14:36.821Z,8.45
2018-11-03T19:17:09.988Z,9.53
2018-11-03T19:19:42.798Z,9.85
2018-11-03T19:22:13.350Z,9.45
2018-11-03T19:24:43.904Z,9.70
2018-11-03T19:27:15.243Z,10.30
2018-11-03T19:29:44.881Z,10.70
2018-11-03T19:32:16.049Z,10.93
2018-11-03T19:34:45.732Z,10.35
2018-11-03T19:37:15.818Z,10.28
2018-11-03T19:39:45.835Z,10.80
2018-11-03T19:42:16.518Z,10.48
2018-11-03T19:44:49.151Z,10.83
2018-11-03T19:47:19.022Z,11.45
2018-11-03T19:49:49.349Z,11.90
2018-11-03T19:52:19.714Z,12.10
2018-11-03T19:54:51.006Z,11.57
2018-11-03T19:57:23.177Z,11.95
2018-11-03T19:59:53.352Z,12.65
2018-11-03T20:02:23.820Z,12.10
2018-11-03T20:04:53.596Z,13.10
2018-11-03T20:07:23.302Z,12.35
2018-11-03T20:09:52.793Z,12.40
2018-11-03T20:12:22.895Z,13.65
2018-11-03T20:14:52.407Z,13.72
2018-11-03T20:17:22.577Z,13.37
2018-11-03T20:19:53.305Z,11.73
2018-11-03T20:22:23.323Z,12.30
2018-11-03T20:24:55.185Z,12.68
2018-11-03T20:27:25.643Z,12.35
2018-11-03T20:29:55.266Z,13.08
2018-11-03T20:32:24.584Z,13.13
2018-11-03T20:34:54.044Z,12.43
2018-11-03T20:37:23.257Z,12.65
2018-11-03T20:39:53.335Z,13.45
2018-11-03T20:42:23.447Z,13.43
2018-11-03T20:44:53.226Z,14.40
2018-11-03T20:47:22.388Z,13.93
2018-11-03T20:49:52.434Z,13.40
2018-11-03T20:52:23.178Z,13.43
2018-11-03T20:54:52.852Z,12.82
2018-11-03T20:57:22.822Z,13.28
2018-11-03T20:59:53.746Z,12.50
2018-11-03T21:02:23.097Z,12.90
2018-11-03T21:04:54.118Z,12.85
2018-11-03T21:07:24.311Z,13.18
2018-11-03T21:09:53.677Z,12.63
2018-11-03T21:12:22.793Z,12.60
2018-11-03T21:14:52.505Z,12.93
2018-11-03T21:17:21.841Z,12.68
2018-11-03T21:19:51.149Z,12.67
2018-11-03T21:22:20.538Z,12.60
2018-11-03T21:24:49.695Z,13.22
2018-11-03T21:27:19.068Z,12.58
2018-11-03T21:29:48.927Z,12.45
2018-11-03T21:32:19.324Z,12.03
2018-11-03T21:34:48.762Z,12.55
2018-11-03T21:37:17.923Z,11.97
2018-11-03T21:39:47.499Z,11.67
2018-11-03T21:42:16.852Z,11.97
2018-11-03T21:44:46.466Z,11.73
2018-11-03T21:47:16.674Z,12.00
2018-11-03T21:49:46.331Z,11.65
2018-11-03T21:52:16.701Z,11.13
2018-11-03T21:54:46.090Z,10.90
2018-11-03T21:57:17.350Z,11.40
2018-11-03T21:59:47.061Z,11.48
2018-11-03T22:02:16.820Z,11.80
2018-11-03T22:04:46.157Z,11.50
2018-11-03T22:07:16.198Z,11.40
2018-11-03T22:09:45.636Z,11.30
2018-11-03T22:12:15.774Z,11.18
2018-11-03T22:14:47.417Z,11.25
2018-11-03T22:17:17.783Z,11.20
2018-11-03T22:19:51.536Z,11.30
2018-11-03T22:22:22.110Z,10.82
2018-11-03T22:24:51.588Z,10.80
2018-11-03T22:27:23.029Z,12.07
2018-11-03T22:29:53.214Z,12.28
2018-11-03T22:32:22.754Z,12.33
2018-11-03T22:34:52.209Z,12.23
2018-11-03T22:37:21.585Z,11.97
2018-11-03T22:39:50.866Z,11.70
2018-11-03T22:42:20.125Z,12.55
2018-11-03T22:44:49.413Z,12.58
2018-11-03T22:47:18.813Z,11.83
2018-11-03T22:49:48.293Z,11.83
2018-11-03T22:52:18.536Z,11.73
2018-11-03T22:54:47.792Z,12.25
2018-11-03T22:57:17.114Z,11.73
2018-11-03T22:59:46.820Z,11.43
2018-11-03T23:02:16.544Z,10.60
2018-11-03T23:04:46.514Z,12.03
2018-11-03T23:07:15.722Z,11.43
2018-11-03T23:09:45.622Z,11.30
2018-11-03T23:12:16.314Z,11.15
2018-11-03T23:14:45.510Z,11.03
2018-11-03T23:17:16.008Z,11.40
2018-11-03T23:19:46.467Z,10.82
2018-11-03T23:22:16.546Z,10.82
2018-11-03T23:24:47.317Z,11.07
2018-11-03T23:27:16.559Z,11.33
2018-11-03T23:29:46.321Z,11.10
2018-11-03T23:32:15.364Z,11.03
2018-11-03T23:34:45.122Z,10.85
2018-11-03T23:37:14.524Z,11.08
2018-11-03T23:39:43.857Z,11.50
2018-11-03T23:42:13.745Z,11.55
2018-11-03T23:44:43.672Z,11.57
2018-11-03T23:47:13.874Z,11.63
2018-11-03T23:49:46.799Z,11.57
2018-11-03T23:52:18.711Z,11.63
2018-11-03T23:54:47.566Z,11.00
2018-11-03T23:57:16.471Z,11.80
2018-11-03T23:59:45.908Z,10.93
